createdAt,value
2022-11-03T00:01:38.398Z,8.33
2022-11-03T00:06:42.998Z,11.23
2022-11-03T00:17:03.963Z,10.10
2022-11-03T00:22:06.761Z,14.27
2022-11-03T00:27:09.617Z,10.57
2022-11-03T00:32:28.538Z,12.37
2022-11-03T00:44:11.169Z,9.30
2022-11-03T00:49:15.409Z,8.60
2022-11-03T00:54:21.223Z,10.77
2022-11-03T00:59:24.475Z,18.60
2022-11-03T01:04:46.390Z,14.13
2022-11-03T01:09:49.138Z,14.13
2022-11-03T01:14:53.720Z,14.93
2022-11-03T01:19:57.848Z,13.73
2022-11-03T01:25:00.735Z,15.10
2022-11-03T01:30:03.586Z,11.73
2022-11-03T01:35:08.740Z,14.20
2022-11-03T01:40:12.856Z,11.77
2022-11-03T01:45:15.816Z,17.80
2022-11-03T01:50:21.251Z,19.07
2022-11-03T01:55:29.082Z,13.20
2022-11-03T02:00:34.602Z,9.73
2022-11-03T02:05:40.522Z,15.87
2022-11-03T02:10:43.749Z,12.20
2022-11-03T02:15:49.648Z,13.27
2022-11-03T02:21:05.302Z,10.70
2022-11-03T02:26:10.792Z,16.27
2022-11-03T02:31:17.977Z,15.67
2022-11-03T02:36:26.329Z,17.70
2022-11-03T02:41:34.404Z,12.83
2022-11-03T02:46:37.473Z,11.03
2022-11-03T02:51:40.819Z,12.20
2022-11-03T02:56:51.090Z,14.90
2022-11-03T03:01:59.028Z,14.23
2022-11-03T03:07:05.819Z,14.13
2022-11-03T03:12:11.450Z,15.97
2022-11-03T03:17:18.618Z,14.67
2022-11-03T03:22:26.206Z,12.10
2022-11-03T03:27:34.155Z,12.40
2022-11-03T03:32:40.506Z,14.40
2022-11-03T03:37:47.320Z,13.80
2022-11-03T03:42:53.967Z,11.40
2022-11-03T03:47:57.920Z,12.33
2022-11-03T03:53:02.594Z,17.00
2022-11-03T03:58:07.948Z,16.53
2022-11-03T04:03:16.536Z,17.77
2022-11-03T04:08:19.738Z,13.20
2022-11-03T04:13:41.417Z,13.77
2022-11-03T04:19:01.858Z,13.87
2022-11-03T04:24:04.895Z,14.30
2022-11-03T04:29:11.961Z,12.50
2022-11-03T04:34:14.750Z,12.13
2022-11-03T04:39:20.699Z,17.57
2022-11-03T04:44:25.115Z,12.70
2022-11-03T04:49:27.842Z,16.97
2022-11-03T04:54:30.621Z,42.57
2022-11-03T04:59:34.768Z,67.60
2022-11-03T05:04:37.540Z,46.00
2022-11-03T05:09:42.906Z,30.77
2022-11-03T05:14:47.221Z,47.03
2022-11-03T05:19:51.478Z,49.63
2022-11-03T05:25:01.387Z,22.40
2022-11-03T05:30:08.076Z,19.33
2022-11-03T05:35:20.123Z,16.20
2022-11-03T05:40:25.103Z,20.53
2022-11-03T05:45:34.584Z,21.60
2022-11-03T05:50:37.463Z,16.47
2022-11-03T05:55:41.774Z,13.63
2022-11-03T06:00:48.783Z,16.13
2022-11-03T06:05:52.519Z,20.47
2022-11-03T06:10:57.733Z,18.70
2022-11-03T06:16:04.424Z,17.47
2022-11-03T06:21:09.192Z,15.60
2022-11-03T06:26:19.137Z,17.17
2022-11-03T06:31:28.431Z,23.77
2022-11-03T06:36:36.232Z,18.23
2022-11-03T06:41:39.874Z,15.67
2022-11-03T06:46:44.004Z,20.00
2022-11-03T06:51:46.766Z,19.43
2022-11-03T06:56:49.654Z,16.63
2022-11-03T07:01:56.375Z,16.43
2022-11-03T07:07:05.358Z,15.63
2022-11-03T07:12:18.419Z,14.27
2022-11-03T07:17:24.140Z,11.47
2022-11-03T07:22:27.952Z,6.67
2022-11-03T07:27:32.481Z,9.20
2022-11-03T07:32:36.781Z,9.77
2022-11-03T07:37:39.609Z,8.53
2022-11-03T07:42:42.609Z,8.93
2022-11-03T07:47:46.761Z,9.35
2022-11-03T07:52:49.652Z,5.00
2022-11-03T07:57:52.436Z,9.05
2022-11-03T08:03:00.359Z,8.30
2022-11-03T08:08:03.130Z,8.27
2022-11-03T08:13:06.175Z,8.82
2022-11-03T08:18:10.499Z,9.27
2022-11-03T08:23:25.675Z,7.75
2022-11-03T08:28:28.941Z,10.10
2022-11-03T08:33:33.688Z,6.63
2022-11-03T08:38:36.905Z,9.73
2022-11-03T08:43:39.681Z,8.80
2022-11-03T08:48:43.810Z,8.82
2022-11-03T08:53:50.483Z,5.88
2022-11-03T08:58:53.372Z,8.80
2022-11-03T09:03:57.651Z,8.75
2022-11-03T09:14:23.292Z,7.38
2022-11-03T09:19:27.455Z,8.98
2022-11-03T09:24:30.838Z,6.20
2022-11-03T09:29:58.574Z,6.95
2022-11-03T09:34:57.928Z,8.48
2022-11-03T09:40:00.680Z,6.78
2022-11-03T09:45:04.923Z,7.07
2022-11-03T09:50:15.104Z,7.40
2022-11-03T09:55:22.837Z,5.53
2022-11-03T10:00:26.918Z,7.43
2022-11-03T10:05:31.303Z,8.45
2022-11-03T10:10:35.362Z,8.50
2022-11-03T10:15:38.159Z,8.10
2022-11-03T10:20:42.528Z,5.60
2022-11-03T10:25:46.356Z,8.32
2022-11-03T10:31:10.559Z,5.78
2022-11-03T10:36:28.756Z,7.50
2022-11-03T10:41:33.025Z,5.43
2022-11-03T10:46:50.250Z,3.67
2022-11-03T10:52:00.859Z,6.22
2022-11-03T10:57:03.629Z,8.35
2022-11-03T11:02:16.338Z,4.63
2022-11-03T11:07:30.752Z,7.00
2022-11-03T11:12:33.565Z,4.55
2022-11-03T11:17:47.903Z,4.07
2022-11-03T11:22:52.302Z,5.82
2022-11-03T11:27:59.467Z,6.03
2022-11-03T11:33:13.671Z,6.05
2022-11-03T11:39:05.566Z,7.07
2022-11-03T11:44:46.169Z,4.97
2022-11-03T11:49:52.460Z,5.85
2022-11-03T11:54:55.253Z,5.63
2022-11-03T11:59:58.068Z,6.88
2022-11-03T12:05:03.758Z,4.35
2022-11-03T12:10:09.890Z,4.80
2022-11-03T12:15:46.494Z,5.43
2022-11-03T12:20:53.466Z,5.88
2022-11-03T12:25:56.211Z,8.00
2022-11-03T12:36:09.464Z,7.97
2022-11-03T12:41:25.362Z,7.32
2022-11-03T12:46:28.426Z,6.75
2022-11-03T12:51:32.484Z,14.50
2022-11-03T12:56:35.552Z,8.43
2022-11-03T13:01:38.729Z,8.50
2022-11-03T13:06:43.924Z,9.10
2022-11-03T13:12:04.964Z,9.70
2022-11-03T13:17:10.756Z,9.77
2022-11-03T13:22:15.164Z,8.82
2022-11-03T13:27:17.934Z,11.40
2022-11-03T13:32:20.857Z,10.13
2022-11-03T13:37:25.218Z,11.70
2022-11-03T13:42:27.978Z,8.30
2022-11-03T13:47:40.467Z,7.75
2022-11-03T13:52:55.566Z,7.57
2022-11-03T14:08:45.157Z,10.88
2022-11-03T14:13:47.887Z,11.10
2022-11-03T14:18:50.690Z,10.73
2022-11-03T14:23:54.767Z,8.82
2022-11-03T14:28:57.558Z,7.72
2022-11-03T14:34:00.302Z,11.43
2022-11-03T14:39:04.826Z,10.75
2022-11-03T14:44:07.583Z,9.38
2022-11-03T14:49:10.322Z,15.63
2022-11-03T14:54:14.456Z,10.25
2022-11-03T14:59:17.255Z,15.07
2022-11-03T15:04:20.177Z,14.40
2022-11-03T15:09:24.332Z,12.20
2022-11-03T15:14:29.232Z,10.60
2022-11-03T15:19:31.999Z,11.48
2022-11-03T15:29:58.781Z,15.13
2022-11-03T15:35:01.680Z,12.13
2022-11-03T15:40:07.320Z,13.53
2022-11-03T15:45:13.010Z,11.02
2022-11-03T15:50:16.570Z,14.10
2022-11-03T15:55:21.608Z,12.82
2022-11-03T16:00:24.499Z,9.67
2022-11-03T16:05:27.222Z,11.93
2022-11-03T16:10:31.338Z,14.37
2022-11-03T16:15:34.165Z,9.73
2022-11-03T16:20:36.915Z,13.30
2022-11-03T16:25:41.130Z,14.07
2022-11-03T16:30:43.874Z,12.03
2022-11-03T16:35:46.642Z,9.88
2022-11-03T16:40:50.707Z,16.73
2022-11-03T16:45:53.468Z,10.67
2022-11-03T16:50:57.878Z,14.10
2022-11-03T16:56:01.962Z,11.23
2022-11-03T17:01:05.369Z,15.40
2022-11-03T17:06:08.251Z,9.53
2022-11-03T17:11:12.317Z,12.30
2022-11-03T17:16:15.097Z,16.23
2022-11-03T17:21:17.834Z,15.07
2022-11-03T17:26:30.293Z,12.13
2022-11-03T17:31:33.034Z,11.35
2022-11-03T17:36:35.793Z,11.63
2022-11-03T17:41:39.853Z,13.18
2022-11-03T17:46:42.594Z,14.87
2022-11-03T17:51:45.579Z,10.05
2022-11-03T17:56:49.809Z,13.02
2022-11-03T18:01:52.919Z,11.85
2022-11-03T18:06:55.968Z,13.87
2022-11-03T18:12:17.657Z,13.53
2022-11-03T18:17:20.662Z,19.90
2022-11-03T18:22:23.485Z,15.90
2022-11-03T18:27:27.672Z,15.73
2022-11-03T18:32:35.766Z,13.43
2022-11-03T18:37:39.363Z,14.25
2022-11-03T18:42:43.633Z,15.80
2022-11-03T18:47:46.742Z,12.83
2022-11-03T18:52:51.951Z,14.30
2022-11-03T18:57:56.075Z,18.92
2022-11-03T19:02:58.848Z,13.40
2022-11-03T19:08:03.249Z,15.73
2022-11-03T19:13:09.588Z,16.40
2022-11-03T19:18:13.950Z,16.53
2022-11-03T19:23:17.033Z,19.40
2022-11-03T19:28:22.912Z,16.97
2022-11-03T19:33:28.462Z,15.63
2022-11-03T19:38:31.212Z,14.47
2022-11-03T19:43:35.352Z,19.13
2022-11-03T19:48:38.524Z,16.90
2022-11-03T19:53:46.852Z,17.45
2022-11-03T19:58:51.253Z,14.57
2022-11-03T20:03:54.009Z,14.77
2022-11-03T20:08:58.060Z,14.53
2022-11-03T20:14:03.334Z,19.53
2022-11-03T20:19:06.084Z,14.10
2022-11-03T20:24:09.227Z,14.63
2022-11-03T20:29:15.649Z,18.23
2022-11-03T20:34:18.493Z,19.23
2022-11-03T20:39:21.316Z,17.40
2022-11-03T20:44:25.464Z,15.53
2022-11-03T20:49:28.163Z,15.10
2022-11-03T20:54:31.286Z,15.00
2022-11-03T20:59:37.793Z,15.27
2022-11-03T21:04:43.048Z,18.80
2022-11-03T21:09:45.891Z,14.00
2022-11-03T21:15:03.976Z,15.57
2022-11-03T21:20:11.907Z,14.03
2022-11-03T21:25:17.211Z,17.07
2022-11-03T21:30:21.735Z,11.73
2022-11-03T21:35:24.682Z,17.37
2022-11-03T21:40:27.499Z,15.13
2022-11-03T21:45:31.670Z,13.53
2022-11-03T21:50:34.408Z,17.23
2022-11-03T21:55:37.519Z,13.57
2022-11-03T22:00:41.817Z,15.03
2022-11-03T22:05:44.782Z,11.13
2022-11-03T22:10:47.620Z,13.17
2022-11-03T22:16:12.244Z,13.93
2022-11-03T22:21:32.956Z,12.03
2022-11-03T22:26:53.413Z,15.53
2022-11-03T22:31:57.583Z,11.20
2022-11-03T22:37:00.386Z,11.70
2022-11-03T22:42:32.475Z,13.57
2022-11-03T22:47:36.618Z,12.87
2022-11-03T22:52:39.370Z,16.20
2022-11-03T22:57:43.168Z,13.50
2022-11-03T23:02:47.341Z,13.53
2022-11-03T23:07:50.071Z,13.97
2022-11-03T23:12:52.859Z,13.07
2022-11-03T23:18:14.378Z,12.30
2022-11-03T23:23:31.071Z,13.73
2022-11-03T23:28:33.846Z,12.43
2022-11-03T23:33:38.173Z,16.27
2022-11-03T23:38:42.086Z,12.80
2022-11-03T23:43:45.697Z,16.20
2022-11-03T23:48:50.561Z,12.80
2022-11-03T23:53:53.985Z,16.67
2022-11-03T23:58:56.751Z,12.50
